sensor_id;sensor_type;location;lat;lon;timestamp;P1;durP1;ratioP1;P2;durP2;ratioP2
20454;SDS011;10386;54.314;10.022;2022-08-11T00:01:51;4.40;;;3.30;;
20454;SDS011;10386;54.314;10.022;2022-08-11T00:04:20;6.63;;;3.07;;
20454;SDS011;10386;54.314;10.022;2022-08-11T00:06:50;4.90;;;3.27;;
20454;SDS011;10386;54.314;10.022;2022-08-11T00:09:20;6.27;;;3.50;;
20454;SDS011;10386;54.314;10.022;2022-08-11T00:14:31;3.60;;;3.10;;
20454;SDS011;10386;54.314;10.022;2022-08-11T00:19:47;9.17;;;3.10;;
20454;SDS011;10386;54.314;10.022;2022-08-11T00:22:36;4.57;;;3.17;;
20454;SDS011;10386;54.314;10.022;2022-08-11T00:25:10;4.57;;;3.17;;
20454;SDS011;10386;54.314;10.022;2022-08-11T00:27:42;4.43;;;3.20;;
20454;SDS011;10386;54.314;10.022;2022-08-11T00:30:10;5.30;;;3.07;;
20454;SDS011;10386;54.314;10.022;2022-08-11T00:32:40;5.77;;;3.00;;
20454;SDS011;10386;54.314;10.022;2022-08-11T00:35:13;3.30;;;2.70;;
20454;SDS011;10386;54.314;10.022;2022-08-11T00:38:02;4.10;;;3.40;;
20454;SDS011;10386;54.314;10.022;2022-08-11T00:52:13;4.90;;;3.27;;
20454;SDS011;10386;54.314;10.022;2022-08-11T00:54:57;5.07;;;3.23;;
20454;SDS011;10386;54.314;10.022;2022-08-11T00:57:52;4.77;;;3.10;;
20454;SDS011;10386;54.314;10.022;2022-08-11T01:26:19;5.60;;;3.07;;
20454;SDS011;10386;54.314;10.022;2022-08-11T01:45:46;5.03;;;3.60;;
20454;SDS011;10386;54.314;10.022;2022-08-11T01:53:52;6.07;;;3.33;;
20454;SDS011;10386;54.314;10.022;2022-08-11T01:56:37;6.27;;;3.57;;
20454;SDS011;10386;54.314;10.022;2022-08-11T02:11:17;6.60;;;3.57;;
20454;SDS011;10386;54.314;10.022;2022-08-11T02:16:50;4.67;;;3.77;;
20454;SDS011;10386;54.314;10.022;2022-08-11T02:19:37;6.47;;;4.30;;
20454;SDS011;10386;54.314;10.022;2022-08-11T02:29:27;3.70;;;3.37;;
20454;SDS011;10386;54.314;10.022;2022-08-11T02:35:15;3.87;;;3.57;;
20454;SDS011;10386;54.314;10.022;2022-08-11T02:37:47;5.90;;;4.10;;
20454;SDS011;10386;54.314;10.022;2022-08-11T02:52:13;5.33;;;3.93;;
20454;SDS011;10386;54.314;10.022;2022-08-11T02:58:00;5.97;;;3.47;;
20454;SDS011;10386;54.314;10.022;2022-08-11T03:00:42;4.30;;;3.90;;
20454;SDS011;10386;54.314;10.022;2022-08-11T03:03:36;5.00;;;3.80;;
20454;SDS011;10386;54.314;10.022;2022-08-11T03:06:08;4.30;;;3.60;;
20454;SDS011;10386;54.314;10.022;2022-08-11T03:11:45;5.00;;;3.63;;
20454;SDS011;10386;54.314;10.022;2022-08-11T03:17:49;3.47;;;3.17;;
20454;SDS011;10386;54.314;10.022;2022-08-11T03:20:47;4.47;;;4.00;;
20454;SDS011;10386;54.314;10.022;2022-08-11T03:23:32;6.47;;;3.80;;
20454;SDS011;10386;54.314;10.022;2022-08-11T03:26:07;4.37;;;3.60;;
20454;SDS011;10386;54.314;10.022;2022-08-11T03:28:43;6.17;;;3.67;;
20454;SDS011;10386;54.314;10.022;2022-08-11T03:31:19;5.23;;;3.43;;
20454;SDS011;10386;54.314;10.022;2022-08-11T03:43:10;6.67;;;2.97;;
20454;SDS011;10386;54.314;10.022;2022-08-11T03:46:11;6.93;;;3.67;;
20454;SDS011;10386;54.314;10.022;2022-08-11T03:49:04;3.53;;;2.80;;
20454;SDS011;10386;54.314;10.022;2022-08-11T03:54:36;6.67;;;3.30;;
20454;SDS011;10386;54.314;10.022;2022-08-11T04:00:07;4.20;;;3.27;;
20454;SDS011;10386;54.314;10.022;2022-08-11T04:16:26;4.10;;;3.07;;
20454;SDS011;10386;54.314;10.022;2022-08-11T04:54:30;4.30;;;3.90;;
20454;SDS011;10386;54.314;10.022;2022-08-11T05:12:55;6.00;;;3.70;;
20454;SDS011;10386;54.314;10.022;2022-08-11T05:16:00;4.40;;;3.77;;
20454;SDS011;10386;54.314;10.022;2022-08-11T05:18:54;5.93;;;3.60;;
20454;SDS011;10386;54.314;10.022;2022-08-11T05:21:45;4.63;;;3.57;;
20454;SDS011;10386;54.314;10.022;2022-08-11T05:24:55;6.30;;;3.70;;
20454;SDS011;10386;54.314;10.022;2022-08-11T05:28:10;4.63;;;3.80;;
20454;SDS011;10386;54.314;10.022;2022-08-11T05:31:09;4.10;;;3.70;;
20454;SDS011;10386;54.314;10.022;2022-08-11T05:34:11;8.80;;;4.33;;
20454;SDS011;10386;54.314;10.022;2022-08-11T05:37:44;5.30;;;3.50;;
20454;SDS011;10386;54.314;10.022;2022-08-11T05:39:59;5.10;;;3.70;;
20454;SDS011;10386;54.314;10.022;2022-08-11T05:42:54;5.67;;;3.90;;
20454;SDS011;10386;54.314;10.022;2022-08-11T05:45:55;8.07;;;3.63;;
20454;SDS011;10386;54.314;10.022;2022-08-11T05:48:44;8.83;;;4.53;;
20454;SDS011;10386;54.314;10.022;2022-08-11T05:51:35;8.53;;;4.10;;
20454;SDS011;10386;54.314;10.022;2022-08-11T05:54:38;9.10;;;4.07;;
20454;SDS011;10386;54.314;10.022;2022-08-11T05:57:34;5.67;;;3.67;;
20454;SDS011;10386;54.314;10.022;2022-08-11T06:00:17;11.90;;;3.83;;
20454;SDS011;10386;54.314;10.022;2022-08-11T06:02:47;6.60;;;3.60;;
20454;SDS011;10386;54.314;10.022;2022-08-11T06:05:16;5.27;;;4.37;;
20454;SDS011;10386;54.314;10.022;2022-08-11T06:07:45;6.10;;;3.37;;
20454;SDS011;10386;54.314;10.022;2022-08-11T06:10:28;9.17;;;4.30;;
20454;SDS011;10386;54.314;10.022;2022-08-11T06:12:58;9.27;;;3.63;;
20454;SDS011;10386;54.314;10.022;2022-08-11T06:15:28;4.47;;;3.40;;
20454;SDS011;10386;54.314;10.022;2022-08-11T06:17:57;6.23;;;3.40;;
20454;SDS011;10386;54.314;10.022;2022-08-11T06:20:27;6.10;;;3.80;;
20454;SDS011;10386;54.314;10.022;2022-08-11T06:23:02;8.80;;;3.50;;
20454;SDS011;10386;54.314;10.022;2022-08-11T06:25:32;6.87;;;3.23;;
20454;SDS011;10386;54.314;10.022;2022-08-11T06:28:04;6.73;;;3.20;;
20454;SDS011;10386;54.314;10.022;2022-08-11T06:30:39;7.97;;;3.27;;
20454;SDS011;10386;54.314;10.022;2022-08-11T06:33:10;7.18;;;3.00;;
20454;SDS011;10386;54.314;10.022;2022-08-11T06:41:24;5.25;;;2.55;;
20454;SDS011;10386;54.314;10.022;2022-08-11T06:44:22;4.13;;;2.50;;
20454;SDS011;10386;54.314;10.022;2022-08-11T06:46:53;3.15;;;2.40;;
20454;SDS011;10386;54.314;10.022;2022-08-11T06:49:32;2.95;;;2.22;;
20454;SDS011;10386;54.314;10.022;2022-08-11T06:52:28;8.27;;;2.88;;
20454;SDS011;10386;54.314;10.022;2022-08-11T06:55:08;3.10;;;2.30;;
20454;SDS011;10386;54.314;10.022;2022-08-11T06:57:57;2.53;;;2.10;;
20454;SDS011;10386;54.314;10.022;2022-08-11T07:00:43;2.60;;;2.20;;
20454;SDS011;10386;54.314;10.022;2022-08-11T07:03:17;7.10;;;2.40;;
20454;SDS011;10386;54.314;10.022;2022-08-11T07:14:52;3.13;;;2.33;;
20454;SDS011;10386;54.314;10.022;2022-08-11T07:17:41;7.25;;;2.60;;
20454;SDS011;10386;54.314;10.022;2022-08-11T07:20:15;6.07;;;2.67;;
20454;SDS011;10386;54.314;10.022;2022-08-11T07:23:02;3.78;;;2.38;;
20454;SDS011;10386;54.314;10.022;2022-08-11T07:25:51;2.42;;;2.20;;
20454;SDS011;10386;54.314;10.022;2022-08-11T07:28:38;3.47;;;2.55;;
20454;SDS011;10386;54.314;10.022;2022-08-11T07:31:34;5.32;;;2.40;;
20454;SDS011;10386;54.314;10.022;2022-08-11T07:34:14;3.28;;;2.65;;
20454;SDS011;10386;54.314;10.022;2022-08-11T07:36:53;3.53;;;2.17;;
20454;SDS011;10386;54.314;10.022;2022-08-11T07:39:23;3.78;;;2.35;;
20454;SDS011;10386;54.314;10.022;2022-08-11T07:41:54;2.20;;;2.10;;
20454;SDS011;10386;54.314;10.022;2022-08-11T07:44:23;3.50;;;2.35;;
20454;SDS011;10386;54.314;10.022;2022-08-11T07:47:00;3.83;;;1.77;;
20454;SDS011;10386;54.314;10.022;2022-08-11T07:49:45;3.45;;;2.40;;
20454;SDS011;10386;54.314;10.022;2022-08-11T07:52:33;4.15;;;2.20;;
20454;SDS011;10386;54.314;10.022;2022-08-11T07:55:12;7.32;;;2.20;;
20454;SDS011;10386;54.314;10.022;2022-08-11T07:57:44;3.35;;;2.10;;
20454;SDS011;10386;54.314;10.022;2022-08-11T08:00:46;5.68;;;2.05;;
20454;SDS011;10386;54.314;10.022;2022-08-11T08:03:37;9.40;;;2.40;;
20454;SDS011;10386;54.314;10.022;2022-08-11T08:06:23;4.38;;;2.30;;
20454;SDS011;10386;54.314;10.022;2022-08-11T08:09:11;6.22;;;2.53;;
20454;SDS011;10386;54.314;10.022;2022-08-11T08:11:59;4.75;;;2.22;;
20454;SDS011;10386;54.314;10.022;2022-08-11T08:14:46;3.03;;;2.00;;
20454;SDS011;10386;54.314;10.022;2022-08-11T08:17:31;3.80;;;2.15;;
20454;SDS011;10386;54.314;10.022;2022-08-11T08:20:37;2.08;;;1.98;;
20454;SDS011;10386;54.314;10.022;2022-08-11T08:23:07;3.33;;;2.17;;
20454;SDS011;10386;54.314;10.022;2022-08-11T08:25:37;4.25;;;2.03;;
20454;SDS011;10386;54.314;10.022;2022-08-11T08:28:10;2.70;;;2.00;;
20454;SDS011;10386;54.314;10.022;2022-08-11T08:30:41;3.35;;;2.33;;
20454;SDS011;10386;54.314;10.022;2022-08-11T08:33:24;2.55;;;2.35;;
20454;SDS011;10386;54.314;10.022;2022-08-11T08:35:54;5.47;;;1.92;;
20454;SDS011;10386;54.314;10.022;2022-08-11T08:38:47;5.88;;;2.17;;
20454;SDS011;10386;54.314;10.022;2022-08-11T08:41:20;6.07;;;1.85;;
20454;SDS011;10386;54.314;10.022;2022-08-11T08:43:50;6.50;;;2.00;;
20454;SDS011;10386;54.314;10.022;2022-08-11T08:46:41;3.65;;;1.85;;
20454;SDS011;10386;54.314;10.022;2022-08-11T08:49:15;5.53;;;2.13;;
20454;SDS011;10386;54.314;10.022;2022-08-11T08:51:48;4.13;;;1.95;;
20454;SDS011;10386;54.314;10.022;2022-08-11T08:54:39;2.58;;;2.22;;
20454;SDS011;10386;54.314;10.022;2022-08-11T08:57:08;2.35;;;2.17;;
20454;SDS011;10386;54.314;10.022;2022-08-11T08:59:40;3.53;;;1.88;;
20454;SDS011;10386;54.314;10.022;2022-08-11T09:02:17;2.30;;;2.08;;
20454;SDS011;10386;54.314;10.022;2022-08-11T09:05:00;4.18;;;2.38;;
20454;SDS011;10386;54.314;10.022;2022-08-11T09:07:29;4.13;;;2.13;;
20454;SDS011;10386;54.314;10.022;2022-08-11T09:10:06;4.50;;;2.55;;
20454;SDS011;10386;54.314;10.022;2022-08-11T09:12:34;2.72;;;2.17;;
20454;SDS011;10386;54.314;10.022;2022-08-11T09:15:04;2.10;;;1.90;;
20454;SDS011;10386;54.314;10.022;2022-08-11T09:17:35;2.33;;;2.08;;
20454;SDS011;10386;54.314;10.022;2022-08-11T09:20:17;5.15;;;2.42;;
20454;SDS011;10386;54.314;10.022;2022-08-11T09:22:47;9.57;;;2.20;;
20454;SDS011;10386;54.314;10.022;2022-08-11T09:25:58;4.00;;;2.60;;
20454;SDS011;10386;54.314;10.022;2022-08-11T09:28:45;3.75;;;2.20;;
20454;SDS011;10386;54.314;10.022;2022-08-11T09:31:13;2.33;;;2.13;;
20454;SDS011;10386;54.314;10.022;2022-08-11T09:33:40;2.00;;;1.90;;
20454;SDS011;10386;54.314;10.022;2022-08-11T09:36:10;5.80;;;2.28;;
20454;SDS011;10386;54.314;10.022;2022-08-11T09:38:56;2.33;;;2.13;;
20454;SDS011;10386;54.314;10.022;2022-08-11T09:41:44;3.78;;;2.25;;
20454;SDS011;10386;54.314;10.022;2022-08-11T09:44:34;2.83;;;2.22;;
20454;SDS011;10386;54.314;10.022;2022-08-11T09:47:20;2.03;;;1.92;;
20454;SDS011;10386;54.314;10.022;2022-08-11T09:49:57;2.97;;;1.80;;
20454;SDS011;10386;54.314;10.022;2022-08-11T09:52:31;2.05;;;1.95;;
20454;SDS011;10386;54.314;10.022;2022-08-11T09:55:01;2.75;;;1.90;;
20454;SDS011;10386;54.314;10.022;2022-08-11T09:57:40;2.28;;;1.83;;
20454;SDS011;10386;54.314;10.022;2022-08-11T10:00:30;2.58;;;1.65;;
20454;SDS011;10386;54.314;10.022;2022-08-11T10:03:07;2.22;;;2.00;;
20454;SDS011;10386;54.314;10.022;2022-08-11T10:05:37;2.70;;;2.50;;
20454;SDS011;10386;54.314;10.022;2022-08-11T10:08:25;3.33;;;1.70;;
20454;SDS011;10386;54.314;10.022;2022-08-11T10:10:55;1.98;;;1.88;;
20454;SDS011;10386;54.314;10.022;2022-08-11T10:13:25;2.60;;;1.80;;
20454;SDS011;10386;54.314;10.022;2022-08-11T10:16:21;3.45;;;1.85;;
20454;SDS011;10386;54.314;10.022;2022-08-11T10:18:51;2.13;;;1.88;;
20454;SDS011;10386;54.314;10.022;2022-08-11T10:23:51;3.55;;;1.80;;
20454;SDS011;10386;54.314;10.022;2022-08-11T10:26:55;4.68;;;2.03;;
20454;SDS011;10386;54.314;10.022;2022-08-11T10:29:32;3.38;;;2.05;;
20454;SDS011;10386;54.314;10.022;2022-08-11T10:32:23;2.47;;;1.83;;
20454;SDS011;10386;54.314;10.022;2022-08-11T10:35:24;1.70;;;1.60;;
20454;SDS011;10386;54.314;10.022;2022-08-11T10:37:55;3.03;;;2.00;;
20454;SDS011;10386;54.314;10.022;2022-08-11T10:40:37;3.72;;;1.90;;
20454;SDS011;10386;54.314;10.022;2022-08-11T10:43:05;5.88;;;2.15;;
20454;SDS011;10386;54.314;10.022;2022-08-11T10:45:43;2.90;;;2.00;;
20454;SDS011;10386;54.314;10.022;2022-08-11T10:48:30;2.90;;;1.77;;
20454;SDS011;10386;54.314;10.022;2022-08-11T10:51:03;3.75;;;1.98;;
20454;SDS011;10386;54.314;10.022;2022-08-11T10:53:41;2.90;;;1.90;;
20454;SDS011;10386;54.314;10.022;2022-08-11T10:56:31;2.63;;;2.08;;
20454;SDS011;10386;54.314;10.022;2022-08-11T10:59:19;1.80;;;1.70;;
20454;SDS011;10386;54.314;10.022;2022-08-11T11:01:48;1.95;;;1.80;;
20454;SDS011;10386;54.314;10.022;2022-08-11T11:04:20;3.13;;;1.70;;
20454;SDS011;10386;54.314;10.022;2022-08-11T11:07:09;3.30;;;1.70;;
20454;SDS011;10386;54.314;10.022;2022-08-11T11:12:15;2.63;;;2.00;;
20454;SDS011;10386;54.314;10.022;2022-08-11T11:15:05;2.03;;;1.67;;
20454;SDS011;10386;54.314;10.022;2022-08-11T11:17:58;2.17;;;1.90;;
20454;SDS011;10386;54.314;10.022;2022-08-11T11:20:41;4.97;;;1.70;;
20454;SDS011;10386;54.314;10.022;2022-08-11T11:23:16;4.55;;;1.67;;
20454;SDS011;10386;54.314;10.022;2022-08-11T11:31:43;1.67;;;1.60;;
20454;SDS011;10386;54.314;10.022;2022-08-11T11:34:37;3.40;;;1.85;;
20454;SDS011;10386;54.314;10.022;2022-08-11T11:37:19;4.30;;;1.70;;
20454;SDS011;10386;54.314;10.022;2022-08-11T11:39:53;2.80;;;1.63;;
20454;SDS011;10386;54.314;10.022;2022-08-11T11:42:22;4.90;;;1.88;;
20454;SDS011;10386;54.314;10.022;2022-08-11T11:44:50;1.92;;;1.70;;
20454;SDS011;10386;54.314;10.022;2022-08-11T11:47:21;6.63;;;1.67;;
20454;SDS011;10386;54.314;10.022;2022-08-11T11:49:49;4.68;;;1.48;;
20454;SDS011;10386;54.314;10.022;2022-08-11T11:52:17;5.32;;;1.60;;
20454;SDS011;10386;54.314;10.022;2022-08-11T11:54:45;4.40;;;1.60;;
20454;SDS011;10386;54.314;10.022;2022-08-11T11:57:16;1.70;;;1.60;;
20454;SDS011;10386;54.314;10.022;2022-08-11T12:00:03;7.07;;;1.80;;
20454;SDS011;10386;54.314;10.022;2022-08-11T12:03:00;2.33;;;1.92;;
20454;SDS011;10386;54.314;10.022;2022-08-11T12:05:30;1.90;;;1.73;;
20454;SDS011;10386;54.314;10.022;2022-08-11T12:08:00;1.65;;;1.55;;
20454;SDS011;10386;54.314;10.022;2022-08-11T12:10:48;2.03;;;1.48;;
20454;SDS011;10386;54.314;10.022;2022-08-11T12:13:40;1.55;;;1.45;;
20454;SDS011;10386;54.314;10.022;2022-08-11T12:16:10;5.32;;;1.90;;
20454;SDS011;10386;54.314;10.022;2022-08-11T12:18:58;1.90;;;1.80;;
20454;SDS011;10386;54.314;10.022;2022-08-11T12:21:27;3.58;;;2.08;;
20454;SDS011;10386;54.314;10.022;2022-08-11T12:23:55;1.88;;;1.77;;
20454;SDS011;10386;54.314;10.022;2022-08-11T12:26:44;2.45;;;1.70;;
20454;SDS011;10386;54.314;10.022;2022-08-11T12:29:43;3.55;;;2.22;;
20454;SDS011;10386;54.314;10.022;2022-08-11T12:32:21;6.93;;;2.00;;
20454;SDS011;10386;54.314;10.022;2022-08-11T12:34:50;4.55;;;2.08;;
20454;SDS011;10386;54.314;10.022;2022-08-11T12:37:19;4.18;;;1.80;;
20454;SDS011;10386;54.314;10.022;2022-08-11T12:39:50;3.95;;;2.15;;
20454;SDS011;10386;54.314;10.022;2022-08-11T12:43:02;5.53;;;2.10;;
20454;SDS011;10386;54.314;10.022;2022-08-11T12:46:05;4.15;;;1.80;;
20454;SDS011;10386;54.314;10.022;2022-08-11T12:48:35;3.42;;;1.98;;
20454;SDS011;10386;54.314;10.022;2022-08-11T12:51:29;2.28;;;1.90;;
20454;SDS011;10386;54.314;10.022;2022-08-11T12:54:48;1.90;;;1.80;;
20454;SDS011;10386;54.314;10.022;2022-08-11T13:00:26;7.38;;;1.95;;
20454;SDS011;10386;54.314;10.022;2022-08-11T13:03:13;2.60;;;1.55;;
20454;SDS011;10386;54.314;10.022;2022-08-11T13:06:03;5.55;;;1.70;;
20454;SDS011;10386;54.314;10.022;2022-08-11T13:08:33;2.58;;;1.65;;
20454;SDS011;10386;54.314;10.022;2022-08-11T13:11:02;3.92;;;1.80;;
20454;SDS011;10386;54.314;10.022;2022-08-11T13:13:48;4.55;;;1.90;;
20454;SDS011;10386;54.314;10.022;2022-08-11T13:16:24;4.75;;;1.92;;
20454;SDS011;10386;54.314;10.022;2022-08-11T13:18:55;6.28;;;1.77;;
20454;SDS011;10386;54.314;10.022;2022-08-11T13:21:24;5.32;;;2.22;;
20454;SDS011;10386;54.314;10.022;2022-08-11T13:23:52;5.50;;;1.67;;
20454;SDS011;10386;54.314;10.022;2022-08-11T13:26:31;3.67;;;1.67;;
20454;SDS011;10386;54.314;10.022;2022-08-11T13:29:25;2.92;;;1.73;;
20454;SDS011;10386;54.314;10.022;2022-08-11T13:31:57;3.20;;;1.73;;
20454;SDS011;10386;54.314;10.022;2022-08-11T13:34:28;4.10;;;1.55;;
20454;SDS011;10386;54.314;10.022;2022-08-11T13:37:00;2.50;;;1.80;;
20454;SDS011;10386;54.314;10.022;2022-08-11T13:39:31;4.97;;;1.65;;
20454;SDS011;10386;54.314;10.022;2022-08-11T13:42:00;4.45;;;1.77;;
20454;SDS011;10386;54.314;10.022;2022-08-11T13:44:32;4.55;;;1.90;;
20454;SDS011;10386;54.314;10.022;2022-08-11T13:47:02;3.20;;;1.40;;
20454;SDS011;10386;54.314;10.022;2022-08-11T13:49:30;6.82;;;1.60;;
20454;SDS011;10386;54.314;10.022;2022-08-11T13:52:00;4.68;;;1.80;;
20454;SDS011;10386;54.314;10.022;2022-08-11T13:54:32;4.28;;;1.50;;
20454;SDS011;10386;54.314;10.022;2022-08-11T13:57:04;5.40;;;1.60;;
20454;SDS011;10386;54.314;10.022;2022-08-11T13:59:40;10.32;;;2.03;;
20454;SDS011;10386;54.314;10.022;2022-08-11T14:02:18;4.05;;;1.73;;
20454;SDS011;10386;54.314;10.022;2022-08-11T14:05:00;3.03;;;1.50;;
20454;SDS011;10386;54.314;10.022;2022-08-11T14:07:38;3.45;;;1.38;;
20454;SDS011;10386;54.314;10.022;2022-08-11T14:10:27;2.28;;;1.60;;
20454;SDS011;10386;54.314;10.022;2022-08-11T14:13:05;2.17;;;1.40;;
20454;SDS011;10386;54.314;10.022;2022-08-11T14:19:40;1.40;;;1.30;;
20454;SDS011;10386;54.314;10.022;2022-08-11T14:22:09;4.72;;;1.60;;
20454;SDS011;10386;54.314;10.022;2022-08-11T14:27:52;1.42;;;1.20;;
20454;SDS011;10386;54.314;10.022;2022-08-11T14:30:39;1.70;;;1.40;;
20454;SDS011;10386;54.314;10.022;2022-08-11T14:33:26;2.15;;;1.30;;
20454;SDS011;10386;54.314;10.022;2022-08-11T14:36:14;7.90;;;1.63;;
20454;SDS011;10386;54.314;10.022;2022-08-11T14:38:41;9.88;;;1.70;;
20454;SDS011;10386;54.314;10.022;2022-08-11T14:41:08;3.22;;;1.50;;
20454;SDS011;10386;54.314;10.022;2022-08-11T14:43:55;2.25;;;1.50;;
20454;SDS011;10386;54.314;10.022;2022-08-11T14:46:41;1.85;;;1.40;;
20454;SDS011;10386;54.314;10.022;2022-08-11T14:49:28;5.28;;;1.50;;
20454;SDS011;10386;54.314;10.022;2022-08-11T14:51:56;3.50;;;1.20;;
20454;SDS011;10386;54.314;10.022;2022-08-11T14:54:24;2.67;;;1.45;;
20454;SDS011;10386;54.314;10.022;2022-08-11T14:57:12;2.78;;;1.60;;
20454;SDS011;10386;54.314;10.022;2022-08-11T14:59:39;1.98;;;1.48;;
20454;SDS011;10386;54.314;10.022;2022-08-11T15:02:07;3.33;;;1.40;;
20454;SDS011;10386;54.314;10.022;2022-08-11T15:04:56;7.82;;;1.65;;
20454;SDS011;10386;54.314;10.022;2022-08-11T15:07:25;2.20;;;1.40;;
20454;SDS011;10386;54.314;10.022;2022-08-11T15:10:00;3.30;;;1.50;;
20454;SDS011;10386;54.314;10.022;2022-08-11T15:12:39;5.22;;;1.48;;
20454;SDS011;10386;54.314;10.022;2022-08-11T15:15:10;7.38;;;1.33;;
20454;SDS011;10386;54.314;10.022;2022-08-11T15:17:57;4.55;;;1.70;;
20454;SDS011;10386;54.314;10.022;2022-08-11T15:20:28;5.22;;;1.60;;
20454;SDS011;10386;54.314;10.022;2022-08-11T15:23:19;2.25;;;1.45;;
20454;SDS011;10386;54.314;10.022;2022-08-11T15:26:06;1.38;;;1.27;;
20454;SDS011;10386;54.314;10.022;2022-08-11T15:28:38;3.47;;;1.63;;
20454;SDS011;10386;54.314;10.022;2022-08-11T15:31:30;4.05;;;1.38;;
20454;SDS011;10386;54.314;10.022;2022-08-11T15:34:17;5.22;;;1.50;;
20454;SDS011;10386;54.314;10.022;2022-08-11T15:37:06;5.82;;;1.38;;
20454;SDS011;10386;54.314;10.022;2022-08-11T15:46:00;1.27;;;1.17;;
20454;SDS011;10386;54.314;10.022;2022-08-11T15:51:16;4.38;;;1.60;;
20454;SDS011;10386;54.314;10.022;2022-08-11T15:53:52;1.70;;;1.30;;
20454;SDS011;10386;54.314;10.022;2022-08-11T15:56:23;2.47;;;1.38;;
20454;SDS011;10386;54.314;10.022;2022-08-11T15:58:52;3.72;;;1.60;;
20454;SDS011;10386;54.314;10.022;2022-08-11T16:02:01;4.07;;;1.38;;
20454;SDS011;10386;54.314;10.022;2022-08-11T16:04:41;1.40;;;1.23;;
20454;SDS011;10386;54.314;10.022;2022-08-11T16:07:15;3.55;;;1.58;;
20454;SDS011;10386;54.314;10.022;2022-08-11T16:09:59;3.35;;;1.80;;
20454;SDS011;10386;54.314;10.022;2022-08-11T16:12:37;3.63;;;1.48;;
20454;SDS011;10386;54.314;10.022;2022-08-11T16:15:08;3.20;;;1.30;;
20454;SDS011;10386;54.314;10.022;2022-08-11T16:17:58;3.60;;;1.30;;
20454;SDS011;10386;54.314;10.022;2022-08-11T16:20:29;1.75;;;1.40;;
20454;SDS011;10386;54.314;10.022;2022-08-11T16:22:58;2.40;;;1.60;;
20454;SDS011;10386;54.314;10.022;2022-08-11T16:25:28;2.28;;;1.30;;
20454;SDS011;10386;54.314;10.022;2022-08-11T16:28:18;1.88;;;1.52;;
20454;SDS011;10386;54.314;10.022;2022-08-11T16:30:47;2.78;;;1.30;;
20454;SDS011;10386;54.314;10.022;2022-08-11T16:33:15;2.13;;;1.38;;
20454;SDS011;10386;54.314;10.022;2022-08-11T16:36:04;4.75;;;1.48;;
20454;SDS011;10386;54.314;10.022;2022-08-11T16:38:51;2.10;;;1.50;;
20454;SDS011;10386;54.314;10.022;2022-08-11T16:41:20;2.47;;;1.80;;
20454;SDS011;10386;54.314;10.022;2022-08-11T16:44:08;2.20;;;1.55;;
20454;SDS011;10386;54.314;10.022;2022-08-11T16:47:13;2.33;;;1.40;;
20454;SDS011;10386;54.314;10.022;2022-08-11T16:50:03;4.80;;;1.90;;
20454;SDS011;10386;54.314;10.022;2022-08-11T16:52:31;1.58;;;1.48;;
20454;SDS011;10386;54.314;10.022;2022-08-11T16:54:58;5.05;;;2.05;;
20454;SDS011;10386;54.314;10.022;2022-08-11T16:57:29;4.55;;;2.05;;
20454;SDS011;10386;54.314;10.022;2022-08-11T17:00:17;3.47;;;1.38;;
20454;SDS011;10386;54.314;10.022;2022-08-11T17:02:46;4.28;;;1.48;;
20454;SDS011;10386;54.314;10.022;2022-08-11T17:05:34;5.72;;;1.40;;
20454;SDS011;10386;54.314;10.022;2022-08-11T17:08:26;4.15;;;1.83;;
20454;SDS011;10386;54.314;10.022;2022-08-11T17:11:25;3.40;;;1.63;;
20454;SDS011;10386;54.314;10.022;2022-08-11T17:14:12;6.93;;;1.75;;
20454;SDS011;10386;54.314;10.022;2022-08-11T17:17:02;1.50;;;1.40;;
20454;SDS011;10386;54.314;10.022;2022-08-11T17:19:32;7.05;;;1.70;;
20454;SDS011;10386;54.314;10.022;2022-08-11T17:22:24;1.60;;;1.50;;
20454;SDS011;10386;54.314;10.022;2022-08-11T17:25:12;1.70;;;1.50;;
20454;SDS011;10386;54.314;10.022;2022-08-11T17:27:41;5.22;;;1.50;;
20454;SDS011;10386;54.314;10.022;2022-08-11T17:30:09;8.93;;;1.92;;
20454;SDS011;10386;54.314;10.022;2022-08-11T17:32:38;3.78;;;1.50;;
20454;SDS011;10386;54.314;10.022;2022-08-11T17:35:35;2.58;;;1.42;;
20454;SDS011;10386;54.314;10.022;2022-08-11T17:38:11;8.73;;;1.67;;
20454;SDS011;10386;54.314;10.022;2022-08-11T17:40:47;5.07;;;1.48;;
20454;SDS011;10386;54.314;10.022;2022-08-11T17:43:49;3.67;;;1.25;;
20454;SDS011;10386;54.314;10.022;2022-08-11T17:46:37;4.65;;;1.17;;
20454;SDS011;10386;54.314;10.022;2022-08-11T17:49:30;6.45;;;1.35;;
20454;SDS011;10386;54.314;10.022;2022-08-11T17:52:03;2.90;;;1.33;;
20454;SDS011;10386;54.314;10.022;2022-08-11T17:54:50;1.60;;;1.38;;
20454;SDS011;10386;54.314;10.022;2022-08-11T17:57:39;4.95;;;1.50;;
20454;SDS011;10386;54.314;10.022;2022-08-11T18:00:28;2.08;;;1.33;;
20454;SDS011;10386;54.314;10.022;2022-08-11T18:02:57;1.95;;;1.48;;
20454;SDS011;10386;54.314;10.022;2022-08-11T18:05:44;4.70;;;1.95;;
20454;SDS011;10386;54.314;10.022;2022-08-11T18:08:12;1.35;;;1.27;;
20454;SDS011;10386;54.314;10.022;2022-08-11T18:10:59;1.70;;;1.30;;
20454;SDS011;10386;54.314;10.022;2022-08-11T18:14:06;4.13;;;1.50;;
20454;SDS011;10386;54.314;10.022;2022-08-11T18:16:54;3.47;;;1.48;;
20454;SDS011;10386;54.314;10.022;2022-08-11T18:19:40;1.50;;;1.40;;
20454;SDS011;10386;54.314;10.022;2022-08-11T18:22:27;2.17;;;1.40;;
20454;SDS011;10386;54.314;10.022;2022-08-11T18:25:22;2.53;;;1.42;;
20454;SDS011;10386;54.314;10.022;2022-08-11T18:28:15;9.75;;;1.80;;
20454;SDS011;10386;54.314;10.022;2022-08-11T18:31:05;3.92;;;1.95;;
20454;SDS011;10386;54.314;10.022;2022-08-11T18:33:54;4.50;;;1.60;;
20454;SDS011;10386;54.314;10.022;2022-08-11T18:36:49;6.15;;;1.52;;
20454;SDS011;10386;54.314;10.022;2022-08-11T18:39:52;3.83;;;1.48;;
20454;SDS011;10386;54.314;10.022;2022-08-11T18:42:50;5.72;;;1.75;;
20454;SDS011;10386;54.314;10.022;2022-08-11T18:45:39;9.55;;;2.03;;
20454;SDS011;10386;54.314;10.022;2022-08-11T18:48:34;13.80;;;2.03;;
20454;SDS011;10386;54.314;10.022;2022-08-11T18:51:23;4.40;;;2.33;;
20454;SDS011;10386;54.314;10.022;2022-08-11T18:54:11;7.40;;;2.00;;
20454;SDS011;10386;54.314;10.022;2022-08-11T18:56:59;4.95;;;1.83;;
20454;SDS011;10386;54.314;10.022;2022-08-11T18:59:46;11.32;;;1.95;;
20454;SDS011;10386;54.314;10.022;2022-08-11T19:02:42;9.38;;;1.73;;
20454;SDS011;10386;54.314;10.022;2022-08-11T19:05:32;10.32;;;1.67;;
20454;SDS011;10386;54.314;10.022;2022-08-11T19:08:40;10.32;;;1.80;;
20454;SDS011;10386;54.314;10.022;2022-08-11T19:11:30;10.38;;;2.05;;
20454;SDS011;10386;54.314;10.022;2022-08-11T19:14:16;20.20;;;9.85;;
20454;SDS011;10386;54.314;10.022;2022-08-11T19:17:04;28.02;;;15.75;;
20454;SDS011;10386;54.314;10.022;2022-08-11T19:20:12;54.13;;;28.40;;
20454;SDS011;10386;54.314;10.022;2022-08-11T19:23:00;53.33;;;24.70;;
20454;SDS011;10386;54.314;10.022;2022-08-11T19:25:48;35.33;;;17.92;;
20454;SDS011;10386;54.314;10.022;2022-08-11T19:28:34;27.77;;;15.45;;
20454;SDS011;10386;54.314;10.022;2022-08-11T19:31:23;23.65;;;11.68;;
20454;SDS011;10386;54.314;10.022;2022-08-11T19:34:12;19.33;;;11.18;;
20454;SDS011;10386;54.314;10.022;2022-08-11T19:37:00;22.40;;;9.93;;
20454;SDS011;10386;54.314;10.022;2022-08-11T19:39:54;17.23;;;8.32;;
20454;SDS011;10386;54.314;10.022;2022-08-11T19:42:45;14.35;;;6.10;;
20454;SDS011;10386;54.314;10.022;2022-08-11T19:45:49;26.73;;;7.00;;
20454;SDS011;10386;54.314;10.022;2022-08-11T19:48:36;23.33;;;7.82;;
20454;SDS011;10386;54.314;10.022;2022-08-11T19:51:22;12.18;;;7.30;;
20454;SDS011;10386;54.314;10.022;2022-08-11T19:54:08;8.65;;;5.85;;